sensor_id;sensor_type;location;lat;lon;timestamp;temperature;humidity
10451;DHT22;5273;51.290;6.918;2023-05-02T00:01:14;12.00;99.90
10451;DHT22;5273;51.290;6.918;2023-05-02T00:03:41;11.90;99.90
10451;DHT22;5273;51.290;6.918;2023-05-02T00:06:08;11.90;99.90
10451;DHT22;5273;51.290;6.918;2023-05-02T00:08:37;11.90;99.90
10451;DHT22;5273;51.290;6.918;2023-05-02T00:11:03;11.80;99.90
10451;DHT22;5273;51.290;6.918;2023-05-02T00:13:31;11.90;99.90
10451;DHT22;5273;51.290;6.918;2023-05-02T00:15:57;11.80;99.90
10451;DHT22;5273;51.290;6.918;2023-05-02T00:18:24;11.70;99.90
10451;DHT22;5273;51.290;6.918;2023-05-02T00:20:51;11.70;99.90
10451;DHT22;5273;51.290;6.918;2023-05-02T00:23:18;11.60;99.90
10451;DHT22;5273;51.290;6.918;2023-05-02T00:25:46;11.60;99.90
10451;DHT22;5273;51.290;6.918;2023-05-02T00:28:13;11.60;99.90
10451;DHT22;5273;51.290;6.918;2023-05-02T00:30:42;11.60;99.90
10451;DHT22;5273;51.290;6.918;2023-05-02T00:33:09;11.50;99.90
10451;DHT22;5273;51.290;6.918;2023-05-02T00:35:37;11.50;99.90
10451;DHT22;5273;51.290;6.918;2023-05-02T00:38:03;11.50;99.90
10451;DHT22;5273;51.290;6.918;2023-05-02T00:40:31;11.50;99.90
10451;DHT22;5273;51.290;6.918;2023-05-02T00:43:09;11.50;99.90
10451;DHT22;5273;51.290;6.918;2023-05-02T00:45:36;11.50;99.90
10451;DHT22;5273;51.290;6.918;2023-05-02T00:48:05;11.60;99.90
10451;DHT22;5273;51.290;6.918;2023-05-02T00:50:33;11.60;99.90
10451;DHT22;5273;51.290;6.918;2023-05-02T00:53:02;11.60;99.90
10451;DHT22;5273;51.290;6.918;2023-05-02T00:55:30;11.70;99.90
10451;DHT22;5273;51.290;6.918;2023-05-02T00:57:57;11.60;99.90
10451;DHT22;5273;51.290;6.918;2023-05-02T01:00:30;11.60;99.90
10451;DHT22;5273;51.290;6.918;2023-05-02T01:03:11;11.50;99.90
10451;DHT22;5273;51.290;6.918;2023-05-02T01:05:45;11.50;99.90
10451;DHT22;5273;51.290;6.918;2023-05-02T01:08:19;11.50;99.90
10451;DHT22;5273;51.290;6.918;2023-05-02T01:10:55;11.40;99.90
10451;DHT22;5273;51.290;6.918;2023-05-02T01:13:26;11.40;99.90
10451;DHT22;5273;51.290;6.918;2023-05-02T01:15:57;11.30;99.90
10451;DHT22;5273;51.290;6.918;2023-05-02T01:18:27;11.30;99.90
10451;DHT22;5273;51.290;6.918;2023-05-02T01:20:58;11.30;99.90
10451;DHT22;5273;51.290;6.918;2023-05-02T01:23:31;11.20;99.90
10451;DHT22;5273;51.290;6.918;2023-05-02T01:26:09;11.20;99.90
10451;DHT22;5273;51.290;6.918;2023-05-02T01:29:02;11.20;99.90
10451;DHT22;5273;51.290;6.918;2023-05-02T01:31:32;11.20;99.90
10451;DHT22;5273;51.290;6.918;2023-05-02T01:34:00;11.20;99.90
10451;DHT22;5273;51.290;6.918;2023-05-02T01:36:29;11.20;99.90
10451;DHT22;5273;51.290;6.918;2023-05-02T01:38:59;11.10;99.90
10451;DHT22;5273;51.290;6.918;2023-05-02T01:41:30;11.10;99.90
10451;DHT22;5273;51.290;6.918;2023-05-02T01:43:58;11.10;99.90
10451;DHT22;5273;51.290;6.918;2023-05-02T01:46:31;11.20;99.90
10451;DHT22;5273;51.290;6.918;2023-05-02T01:49:01;11.10;99.90
10451;DHT22;5273;51.290;6.918;2023-05-02T01:51:31;11.20;99.90
10451;DHT22;5273;51.290;6.918;2023-05-02T01:54:02;11.20;99.90
10451;DHT22;5273;51.290;6.918;2023-05-02T01:56:31;11.20;99.90
10451;DHT22;5273;51.290;6.918;2023-05-02T01:59:00;11.20;99.90
10451;DHT22;5273;51.290;6.918;2023-05-02T02:01:29;11.20;99.90
10451;DHT22;5273;51.290;6.918;2023-05-02T02:03:57;11.30;99.90
10451;DHT22;5273;51.290;6.918;2023-05-02T02:06:25;11.30;99.90
10451;DHT22;5273;51.290;6.918;2023-05-02T02:08:53;11.20;99.90
10451;DHT22;5273;51.290;6.918;2023-05-02T02:11:23;11.20;99.90
10451;DHT22;5273;51.290;6.918;2023-05-02T02:13:56;11.20;99.90
10451;DHT22;5273;51.290;6.918;2023-05-02T02:16:33;11.20;99.90
10451;DHT22;5273;51.290;6.918;2023-05-02T02:19:06;11.20;99.90
10451;DHT22;5273;51.290;6.918;2023-05-02T02:21:33;11.20;99.90
10451;DHT22;5273;51.290;6.918;2023-05-02T02:24:04;11.30;99.90
10451;DHT22;5273;51.290;6.918;2023-05-02T02:26:32;11.30;99.90
10451;DHT22;5273;51.290;6.918;2023-05-02T02:29:00;11.30;99.90
10451;DHT22;5273;51.290;6.918;2023-05-02T02:31:29;11.30;99.90
10451;DHT22;5273;51.290;6.918;2023-05-02T02:33:58;11.30;99.90
10451;DHT22;5273;51.290;6.918;2023-05-02T02:36:29;11.20;99.90
10451;DHT22;5273;51.290;6.918;2023-05-02T02:39:03;11.20;99.90
10451;DHT22;5273;51.290;6.918;2023-05-02T02:41:39;11.20;99.90
10451;DHT22;5273;51.290;6.918;2023-05-02T02:44:18;11.20;99.90
10451;DHT22;5273;51.290;6.918;2023-05-02T02:46:52;11.20;99.90
10451;DHT22;5273;51.290;6.918;2023-05-02T02:49:34;11.30;99.90
10451;DHT22;5273;51.290;6.918;2023-05-02T02:52:09;11.30;99.90
10451;DHT22;5273;51.290;6.918;2023-05-02T02:54:41;11.20;99.90
10451;DHT22;5273;51.290;6.918;2023-05-02T02:57:15;11.40;99.90
10451;DHT22;5273;51.290;6.918;2023-05-02T02:59:48;11.30;99.90
10451;DHT22;5273;51.290;6.918;2023-05-02T03:02:18;11.40;99.90
10451;DHT22;5273;51.290;6.918;2023-05-02T03:04:50;11.40;99.90
10451;DHT22;5273;51.290;6.918;2023-05-02T03:07:19;11.30;99.90
10451;DHT22;5273;51.290;6.918;2023-05-02T03:09:46;11.40;99.90
10451;DHT22;5273;51.290;6.918;2023-05-02T03:12:13;11.30;99.90
10451;DHT22;5273;51.290;6.918;2023-05-02T03:14:40;11.30;99.90
10451;DHT22;5273;51.290;6.918;2023-05-02T03:17:08;11.30;99.90
10451;DHT22;5273;51.290;6.918;2023-05-02T03:19:35;11.20;99.90
10451;DHT22;5273;51.290;6.918;2023-05-02T03:22:03;11.30;99.90
10451;DHT22;5273;51.290;6.918;2023-05-02T03:24:30;11.30;99.90
10451;DHT22;5273;51.290;6.918;2023-05-02T03:26:57;11.40;99.90
10451;DHT22;5273;51.290;6.918;2023-05-02T03:29:24;11.40;99.90
10451;DHT22;5273;51.290;6.918;2023-05-02T03:31:51;11.40;99.90
10451;DHT22;5273;51.290;6.918;2023-05-02T03:34:18;11.40;99.90
10451;DHT22;5273;51.290;6.918;2023-05-02T03:36:46;11.40;99.90
10451;DHT22;5273;51.290;6.918;2023-05-02T03:39:14;11.30;99.90
10451;DHT22;5273;51.290;6.918;2023-05-02T03:41:41;11.40;99.90
10451;DHT22;5273;51.290;6.918;2023-05-02T03:44:08;11.50;99.90
10451;DHT22;5273;51.290;6.918;2023-05-02T03:46:35;11.50;99.90
10451;DHT22;5273;51.290;6.918;2023-05-02T03:49:02;11.50;99.90
10451;DHT22;5273;51.290;6.918;2023-05-02T03:51:29;11.50;99.90
10451;DHT22;5273;51.290;6.918;2023-05-02T03:53:56;11.40;99.90
10451;DHT22;5273;51.290;6.918;2023-05-02T03:56:24;11.40;99.90
10451;DHT22;5273;51.290;6.918;2023-05-02T03:58:51;11.40;99.90
10451;DHT22;5273;51.290;6.918;2023-05-02T04:01:18;11.40;99.90
10451;DHT22;5273;51.290;6.918;2023-05-02T04:03:45;11.40;99.90
10451;DHT22;5273;51.290;6.918;2023-05-02T04:06:12;11.40;99.90
10451;DHT22;5273;51.290;6.918;2023-05-02T04:08:38;11.30;99.90
10451;DHT22;5273;51.290;6.918;2023-05-02T04:11:05;11.40;99.90
10451;DHT22;5273;51.290;6.918;2023-05-02T04:13:33;11.40;99.90
10451;DHT22;5273;51.290;6.918;2023-05-02T04:16:00;11.40;99.90
10451;DHT22;5273;51.290;6.918;2023-05-02T04:18:27;11.50;99.90
10451;DHT22;5273;51.290;6.918;2023-05-02T04:20:54;11.50;99.90
10451;DHT22;5273;51.290;6.918;2023-05-02T04:23:20;11.40;99.90
10451;DHT22;5273;51.290;6.918;2023-05-02T04:25:51;11.50;99.90
10451;DHT22;5273;51.290;6.918;2023-05-02T04:28:18;11.40;99.90
10451;DHT22;5273;51.290;6.918;2023-05-02T04:30:47;11.40;99.90
10451;DHT22;5273;51.290;6.918;2023-05-02T04:33:15;11.40;99.90
10451;DHT22;5273;51.290;6.918;2023-05-02T04:35:43;11.40;99.90
10451;DHT22;5273;51.290;6.918;2023-05-02T04:38:09;11.30;99.90
10451;DHT22;5273;51.290;6.918;2023-05-02T04:40:36;11.30;99.90
10451;DHT22;5273;51.290;6.918;2023-05-02T04:43:03;11.40;99.90
10451;DHT22;5273;51.290;6.918;2023-05-02T04:45:30;11.40;99.90
10451;DHT22;5273;51.290;6.918;2023-05-02T04:47:58;11.40;99.90
10451;DHT22;5273;51.290;6.918;2023-05-02T04:50:26;11.30;99.90
10451;DHT22;5273;51.290;6.918;2023-05-02T04:52:53;11.30;99.90
10451;DHT22;5273;51.290;6.918;2023-05-02T04:55:20;11.30;99.90
10451;DHT22;5273;51.290;6.918;2023-05-02T04:57:47;11.30;99.90
10451;DHT22;5273;51.290;6.918;2023-05-02T05:00:14;11.30;99.90
10451;DHT22;5273;51.290;6.918;2023-05-02T05:02:41;11.30;99.90
10451;DHT22;5273;51.290;6.918;2023-05-02T05:05:09;11.40;99.90
10451;DHT22;5273;51.290;6.918;2023-05-02T05:07:36;11.40;99.90
10451;DHT22;5273;51.290;6.918;2023-05-02T05:10:04;11.40;99.90
10451;DHT22;5273;51.290;6.918;2023-05-02T05:12:31;11.40;99.90
10451;DHT22;5273;51.290;6.918;2023-05-02T05:14:57;11.40;99.90
10451;DHT22;5273;51.290;6.918;2023-05-02T05:17:24;11.30;99.90
10451;DHT22;5273;51.290;6.918;2023-05-02T05:19:51;11.30;99.90
10451;DHT22;5273;51.290;6.918;2023-05-02T05:22:19;11.30;99.90
10451;DHT22;5273;51.290;6.918;2023-05-02T05:24:50;11.30;99.90
10451;DHT22;5273;51.290;6.918;2023-05-02T05:27:17;11.30;99.90
10451;DHT22;5273;51.290;6.918;2023-05-02T05:29:44;11.30;99.90
10451;DHT22;5273;51.290;6.918;2023-05-02T05:32:11;11.30;99.90
10451;DHT22;5273;51.290;6.918;2023-05-02T05:34:38;11.40;99.90
10451;DHT22;5273;51.290;6.918;2023-05-02T05:37:05;11.30;99.90
10451;DHT22;5273;51.290;6.918;2023-05-02T05:39:33;11.30;99.90
10451;DHT22;5273;51.290;6.918;2023-05-02T05:42:00;11.30;99.90
10451;DHT22;5273;51.290;6.918;2023-05-02T05:44:27;11.30;99.90
10451;DHT22;5273;51.290;6.918;2023-05-02T05:46:53;11.40;99.90
10451;DHT22;5273;51.290;6.918;2023-05-02T05:49:20;11.30;99.90
10451;DHT22;5273;51.290;6.918;2023-05-02T05:51:48;11.30;99.90
10451;DHT22;5273;51.290;6.918;2023-05-02T05:54:15;11.30;99.90
10451;DHT22;5273;51.290;6.918;2023-05-02T05:56:44;11.20;99.90
10451;DHT22;5273;51.290;6.918;2023-05-02T05:59:11;11.30;99.90
10451;DHT22;5273;51.290;6.918;2023-05-02T06:01:38;11.30;99.90
10451;DHT22;5273;51.290;6.918;2023-05-02T06:04:05;11.30;99.90
10451;DHT22;5273;51.290;6.918;2023-05-02T06:06:32;11.00;99.90
10451;DHT22;5273;51.290;6.918;2023-05-02T06:08:59;11.20;99.90
10451;DHT22;5273;51.290;6.918;2023-05-02T06:11:26;11.20;99.90
10451;DHT22;5273;51.290;6.918;2023-05-02T06:13:54;11.20;99.90
10451;DHT22;5273;51.290;6.918;2023-05-02T06:16:21;11.10;99.90
10451;DHT22;5273;51.290;6.918;2023-05-02T06:18:50;11.10;99.90
10451;DHT22;5273;51.290;6.918;2023-05-02T06:21:17;11.10;99.90
10451;DHT22;5273;51.290;6.918;2023-05-02T06:23:43;11.10;99.90
10451;DHT22;5273;51.290;6.918;2023-05-02T06:26:11;11.10;99.90
10451;DHT22;5273;51.290;6.918;2023-05-02T06:28:38;11.10;99.90
10451;DHT22;5273;51.290;6.918;2023-05-02T06:31:06;11.10;99.90
10451;DHT22;5273;51.290;6.918;2023-05-02T06:33:33;11.10;99.90
10451;DHT22;5273;51.290;6.918;2023-05-02T06:36:00;11.10;99.90
10451;DHT22;5273;51.290;6.918;2023-05-02T06:38:27;11.20;99.90
10451;DHT22;5273;51.290;6.918;2023-05-02T06:40:53;11.20;99.90
10451;DHT22;5273;51.290;6.918;2023-05-02T06:43:20;11.30;99.90
10451;DHT22;5273;51.290;6.918;2023-05-02T06:45:47;11.40;99.90
10451;DHT22;5273;51.290;6.918;2023-05-02T06:48:15;11.40;99.90
10451;DHT22;5273;51.290;6.918;2023-05-02T06:50:42;11.50;99.90
10451;DHT22;5273;51.290;6.918;2023-05-02T06:53:08;11.50;99.90
10451;DHT22;5273;51.290;6.918;2023-05-02T06:55:35;11.60;99.90
10451;DHT22;5273;51.290;6.918;2023-05-02T06:58:02;11.70;99.90
10451;DHT22;5273;51.290;6.918;2023-05-02T07:00:29;11.80;99.90
10451;DHT22;5273;51.290;6.918;2023-05-02T07:02:56;11.80;99.90
10451;DHT22;5273;51.290;6.918;2023-05-02T07:05:24;11.90;99.90
10451;DHT22;5273;51.290;6.918;2023-05-02T07:07:51;11.80;99.90
10451;DHT22;5273;51.290;6.918;2023-05-02T07:10:18;11.90;99.90
10451;DHT22;5273;51.290;6.918;2023-05-02T07:12:44;11.90;99.90
10451;DHT22;5273;51.290;6.918;2023-05-02T07:15:11;12.00;99.90
10451;DHT22;5273;51.290;6.918;2023-05-02T07:17:41;12.00;99.90
10451;DHT22;5273;51.290;6.918;2023-05-02T07:20:09;12.00;99.90
10451;DHT22;5273;51.290;6.918;2023-05-02T07:22:37;12.00;99.90
10451;DHT22;5273;51.290;6.918;2023-05-02T07:25:05;12.00;99.90
10451;DHT22;5273;51.290;6.918;2023-05-02T07:27:32;12.20;99.90
10451;DHT22;5273;51.290;6.918;2023-05-02T07:29:58;12.20;99.90
10451;DHT22;5273;51.290;6.918;2023-05-02T07:32:26;12.40;99.90
10451;DHT22;5273;51.290;6.918;2023-05-02T07:34:53;12.20;99.90
10451;DHT22;5273;51.290;6.918;2023-05-02T07:37:20;12.20;99.90
10451;DHT22;5273;51.290;6.918;2023-05-02T07:39:48;12.20;99.90
10451;DHT22;5273;51.290;6.918;2023-05-02T07:42:15;12.20;99.90
10451;DHT22;5273;51.290;6.918;2023-05-02T07:44:42;12.10;99.90
10451;DHT22;5273;51.290;6.918;2023-05-02T07:47:09;11.90;99.90
10451;DHT22;5273;51.290;6.918;2023-05-02T07:49:35;11.80;99.90
10451;DHT22;5273;51.290;6.918;2023-05-02T07:52:03;11.70;99.90
10451;DHT22;5273;51.290;6.918;2023-05-02T07:54:30;11.60;99.90
10451;DHT22;5273;51.290;6.918;2023-05-02T07:56:58;11.50;99.90
10451;DHT22;5273;51.290;6.918;2023-05-02T07:59:28;11.50;99.90
10451;DHT22;5273;51.290;6.918;2023-05-02T08:01:55;11.40;99.90
10451;DHT22;5273;51.290;6.918;2023-05-02T08:04:22;11.30;99.90
10451;DHT22;5273;51.290;6.918;2023-05-02T08:06:49;11.50;99.90
10451;DHT22;5273;51.290;6.918;2023-05-02T08:09:15;11.50;99.90
10451;DHT22;5273;51.290;6.918;2023-05-02T08:11:42;11.60;99.90
10451;DHT22;5273;51.290;6.918;2023-05-02T08:14:10;11.60;99.90
10451;DHT22;5273;51.290;6.918;2023-05-02T08:16:37;11.70;99.90
10451;DHT22;5273;51.290;6.918;2023-05-02T08:19:04;12.10;99.90
10451;DHT22;5273;51.290;6.918;2023-05-02T08:21:31;11.70;99.90
10451;DHT22;5273;51.290;6.918;2023-05-02T08:23:58;11.70;99.90
10451;DHT22;5273;51.290;6.918;2023-05-02T08:26:25;11.60;99.90
10451;DHT22;5273;51.290;6.918;2023-05-02T08:28:52;11.60;99.90
10451;DHT22;5273;51.290;6.918;2023-05-02T08:31:20;11.70;99.90
10451;DHT22;5273;51.290;6.918;2023-05-02T08:33:47;11.70;99.90
10451;DHT22;5273;51.290;6.918;2023-05-02T08:36:16;11.80;99.90
10451;DHT22;5273;51.290;6.918;2023-05-02T08:38:44;11.90;99.90
10451;DHT22;5273;51.290;6.918;2023-05-02T08:41:11;12.00;99.90
10451;DHT22;5273;51.290;6.918;2023-05-02T08:43:38;12.00;99.90
10451;DHT22;5273;51.290;6.918;2023-05-02T08:46:06;12.10;99.90
10451;DHT22;5273;51.290;6.918;2023-05-02T08:48:36;12.10;99.90
10451;DHT22;5273;51.290;6.918;2023-05-02T08:51:07;12.20;99.90
10451;DHT22;5273;51.290;6.918;2023-05-02T08:53:36;12.30;99.90
10451;DHT22;5273;51.290;6.918;2023-05-02T08:56:03;12.30;99.90
10451;DHT22;5273;51.290;6.918;2023-05-02T08:58:30;12.40;99.90
10451;DHT22;5273;51.290;6.918;2023-05-02T09:01:00;12.50;99.90
10451;DHT22;5273;51.290;6.918;2023-05-02T09:03:29;12.60;99.90
10451;DHT22;5273;51.290;6.918;2023-05-02T09:06:04;12.60;99.90
10451;DHT22;5273;51.290;6.918;2023-05-02T09:08:31;12.50;99.90
10451;DHT22;5273;51.290;6.918;2023-05-02T09:10:58;12.40;99.90
10451;DHT22;5273;51.290;6.918;2023-05-02T09:13:30;12.20;99.90
10451;DHT22;5273;51.290;6.918;2023-05-02T09:15:58;12.10;99.90
10451;DHT22;5273;51.290;6.918;2023-05-02T09:18:28;12.10;99.90
10451;DHT22;5273;51.290;6.918;2023-05-02T09:20:57;12.20;99.90
10451;DHT22;5273;51.290;6.918;2023-05-02T09:23:36;12.20;99.90
10451;DHT22;5273;51.290;6.918;2023-05-02T09:26:17;12.20;99.90
10451;DHT22;5273;51.290;6.918;2023-05-02T09:28:45;12.30;99.90
10451;DHT22;5273;51.290;6.918;2023-05-02T09:31:13;12.30;99.90
10451;DHT22;5273;51.290;6.918;2023-05-02T09:33:40;12.40;99.90
10451;DHT22;5273;51.290;6.918;2023-05-02T09:36:08;12.50;99.90
10451;DHT22;5273;51.290;6.918;2023-05-02T09:38:37;12.60;99.90
10451;DHT22;5273;51.290;6.918;2023-05-02T09:41:04;12.80;99.90
10451;DHT22;5273;51.290;6.918;2023-05-02T09:43:31;13.10;99.90
10451;DHT22;5273;51.290;6.918;2023-05-02T09:45:59;13.60;99.90
10451;DHT22;5273;51.290;6.918;2023-05-02T09:48:27;14.20;99.90
10451;DHT22;5273;51.290;6.918;2023-05-02T09:50:55;14.90;99.90
10451;DHT22;5273;51.290;6.918;2023-05-02T09:53:23;15.60;96.80
10451;DHT22;5273;51.290;6.918;2023-05-02T09:56:00;16.20;95.40
10451;DHT22;5273;51.290;6.918;2023-05-02T09:58:27;16.70;93.10
10451;DHT22;5273;51.290;6.918;2023-05-02T10:00:55;16.80;93.30
10451;DHT22;5273;51.290;6.918;2023-05-02T10:03:24;17.30;91.90
10451;DHT22;5273;51.290;6.918;2023-05-02T10:05:52;17.60;90.20
10451;DHT22;5273;51.290;6.918;2023-05-02T10:08:20;17.60;86.10
10451;DHT22;5273;51.290;6.918;2023-05-02T10:10:51;17.50;86.30
10451;DHT22;5273;51.290;6.918;2023-05-02T10:13:21;17.80;87.10
10451;DHT22;5273;51.290;6.918;2023-05-02T10:15:53;18.00;84.30
10451;DHT22;5273;51.290;6.918;2023-05-02T10:18:27;18.40;84.00
10451;DHT22;5273;51.290;6.918;2023-05-02T10:20:58;18.50;78.50
10451;DHT22;5273;51.290;6.918;2023-05-02T10:23:26;18.90;76.60
10451;DHT22;5273;51.290;6.918;2023-05-02T10:25:54;19.20;76.40
10451;DHT22;5273;51.290;6.918;2023-05-02T10:28:22;19.20;72.50
10451;DHT22;5273;51.290;6.918;2023-05-02T10:30:49;18.90;71.20
10451;DHT22;5273;51.290;6.918;2023-05-02T10:33:17;18.70;69.40
10451;DHT22;5273;51.290;6.918;2023-05-02T10:35:46;18.20;69.60
10451;DHT22;5273;51.290;6.918;2023-05-02T10:38:15;17.50;70.60
10451;DHT22;5273;51.290;6.918;2023-05-02T10:40:47;17.20;73.40
10451;DHT22;5273;51.290;6.918;2023-05-02T10:43:23;17.10;75.90
10451;DHT22;5273;51.290;6.918;2023-05-02T10:45:50;17.10;76.20
10451;DHT22;5273;51.290;6.918;2023-05-02T10:48:19;17.10;76.20
10451;DHT22;5273;51.290;6.918;2023-05-02T10:50:48;17.10;77.20
10451;DHT22;5273;51.290;6.918;2023-05-02T10:53:26;17.20;76.50
10451;DHT22;5273;51.290;6.918;2023-05-02T10:56:17;17.20;75.60
10451;DHT22;5273;51.290;6.918;2023-05-02T10:58:48;17.20;76.20
10451;DHT22;5273;51.290;6.918;2023-05-02T11:01:34;17.20;77.30
10451;DHT22;5273;51.290;6.918;2023-05-02T11:04:08;17.20;74.20
10451;DHT22;5273;51.290;6.918;2023-05-02T11:07:15;17.00;74.00
10451;DHT22;5273;51.290;6.918;2023-05-02T11:09:34;16.80;74.90
10451;DHT22;5273;51.290;6.918;2023-05-02T11:12:01;16.70;76.10
10451;DHT22;5273;51.290;6.918;2023-05-02T11:14:45;16.30;76.40
10451;DHT22;5273;51.290;6.918;2023-05-02T11:17:13;16.00;77.40
10451;DHT22;5273;51.290;6.918;2023-05-02T11:22:51;15.60;79.50
10451;DHT22;5273;51.290;6.918;2023-05-02T11:25:36;15.40;80.30
10451;DHT22;5273;51.290;6.918;2023-05-02T11:28:06;15.20;79.60
10451;DHT22;5273;51.290;6.918;2023-05-02T11:30:38;15.00;80.90
10451;DHT22;5273;51.290;6.918;2023-05-02T11:33:13;14.90;79.40
10451;DHT22;5273;51.290;6.918;2023-05-02T11:35:42;14.70;80.20
10451;DHT22;5273;51.290;6.918;2023-05-02T11:38:12;14.60;80.70
10451;DHT22;5273;51.290;6.918;2023-05-02T11:40:46;14.70;80.80
10451;DHT22;5273;51.290;6.918;2023-05-02T11:43:16;14.80;81.30
10451;DHT22;5273;51.290;6.918;2023-05-02T11:45:43;14.90;81.70
10451;DHT22;5273;51.290;6.918;2023-05-02T11:48:12;14.90;81.60
10451;DHT22;5273;51.290;6.918;2023-05-02T11:50:42;15.00;82.70
10451;DHT22;5273;51.290;6.918;2023-05-02T11:53:10;15.40;84.70
10451;DHT22;5273;51.290;6.918;2023-05-02T11:55:46;15.70;86.30
10451;DHT22;5273;51.290;6.918;2023-05-02T11:58:14;16.20;84.30
10451;DHT22;5273;51.290;6.918;2023-05-02T12:00:42;16.40;82.70
10451;DHT22;5273;51.290;6.918;2023-05-02T12:03:33;16.60;82.40
10451;DHT22;5273;51.290;6.918;2023-05-02T12:06:08;16.70;79.30
10451;DHT22;5273;51.290;6.918;2023-05-02T12:08:36;16.70;77.70
10451;DHT22;5273;51.290;6.918;2023-05-02T12:11:04;16.80;77.10
10451;DHT22;5273;51.290;6.918;2023-05-02T12:13:32;16.90;73.90
10451;DHT22;5273;51.290;6.918;2023-05-02T12:15:59;16.90;73.30
10451;DHT22;5273;51.290;6.918;2023-05-02T12:18:30;16.90;70.10
10451;DHT22;5273;51.290;6.918;2023-05-02T12:20:59;16.80;68.00
10451;DHT22;5273;51.290;6.918;2023-05-02T12:23:26;16.90;70.70
10451;DHT22;5273;51.290;6.918;2023-05-02T12:25:52;16.90;69.80
10451;DHT22;5273;51.290;6.918;2023-05-02T12:28:21;17.00;68.30
10451;DHT22;5273;51.290;6.918;2023-05-02T12:30:50;17.20;69.40
10451;DHT22;5273;51.290;6.918;2023-05-02T12:33:17;17.30;68.60
10451;DHT22;5273;51.290;6.918;2023-05-02T12:35:45;17.40;69.00
10451;DHT22;5273;51.290;6.918;2023-05-02T12:38:16;17.50;67.00
10451;DHT22;5273;51.290;6.918;2023-05-02T12:40:50;17.60;66.10
10451;DHT22;5273;51.290;6.918;2023-05-02T12:43:18;17.60;63.20
10451;DHT22;5273;51.290;6.918;2023-05-02T12:45:48;17.60;63.20
10451;DHT22;5273;51.290;6.918;2023-05-02T12:48:20;17.40;67.10
10451;DHT22;5273;51.290;6.918;2023-05-02T12:50:47;17.30;68.80
10451;DHT22;5273;51.290;6.918;2023-05-02T12:53:14;17.30;70.10
10451;DHT22;5273;51.290;6.918;2023-05-02T12:55:41;17.20;69.60
10451;DHT22;5273;51.290;6.918;2023-05-02T12:58:10;17.30;71.00
10451;DHT22;5273;51.290;6.918;2023-05-02T13:00:39;17.40;71.50
10451;DHT22;5273;51.290;6.918;2023-05-02T13:03:08;17.50;69.00
10451;DHT22;5273;51.290;6.918;2023-05-02T13:05:35;17.60;64.90
10451;DHT22;5273;51.290;6.918;2023-05-02T13:08:02;17.60;63.10
10451;DHT22;5273;51.290;6.918;2023-05-02T13:10:29;17.70;66.40
10451;DHT22;5273;51.290;6.918;2023-05-02T13:12:56;17.80;66.30
10451;DHT22;5273;51.290;6.918;2023-05-02T13:15:22;18.00;66.80
10451;DHT22;5273;51.290;6.918;2023-05-02T13:17:50;18.20;63.70
10451;DHT22;5273;51.290;6.918;2023-05-02T13:20:18;18.20;64.70
10451;DHT22;5273;51.290;6.918;2023-05-02T13:22:45;18.10;64.60
10451;DHT22;5273;51.290;6.918;2023-05-02T13:25:12;18.20;63.70
10451;DHT22;5273;51.290;6.918;2023-05-02T13:27:39;18.20;64.40
10451;DHT22;5273;51.290;6.918;2023-05-02T13:30:08;18.10;61.60
10451;DHT22;5273;51.290;6.918;2023-05-02T13:32:36;18.00;63.10
10451;DHT22;5273;51.290;6.918;2023-05-02T13:35:04;18.00;62.10
10451;DHT22;5273;51.290;6.918;2023-05-02T13:37:32;17.90;62.10
10451;DHT22;5273;51.290;6.918;2023-05-02T13:39:59;17.90;58.10
10451;DHT22;5273;51.290;6.918;2023-05-02T13:42:26;17.80;59.70
10451;DHT22;5273;51.290;6.918;2023-05-02T13:44:52;17.90;60.80
10451;DHT22;5273;51.290;6.918;2023-05-02T13:47:19;17.80;61.50
10451;DHT22;5273;51.290;6.918;2023-05-02T13:49:46;17.60;59.50
10451;DHT22;5273;51.290;6.918;2023-05-02T13:52:13;17.30;58.50
10451;DHT22;5273;51.290;6.918;2023-05-02T13:54:41;17.20;56.70
10451;DHT22;5273;51.290;6.918;2023-05-02T13:57:08;17.00;58.40
10451;DHT22;5273;51.290;6.918;2023-05-02T13:59:36;16.90;59.50
10451;DHT22;5273;51.290;6.918;2023-05-02T14:02:03;16.90;61.50
10451;DHT22;5273;51.290;6.918;2023-05-02T14:04:30;16.90;63.30
10451;DHT22;5273;51.290;6.918;2023-05-02T14:06:57;17.00;65.60
10451;DHT22;5273;51.290;6.918;2023-05-02T14:09:23;17.00;63.90
10451;DHT22;5273;51.290;6.918;2023-05-02T14:11:52;17.10;62.60
10451;DHT22;5273;51.290;6.918;2023-05-02T14:14:20;17.10;59.90
10451;DHT22;5273;51.290;6.918;2023-05-02T14:16:46;17.00;60.90
10451;DHT22;5273;51.290;6.918;2023-05-02T14:19:13;17.00;58.50
10451;DHT22;5273;51.290;6.918;2023-05-02T14:21:40;16.80;58.90
10451;DHT22;5273;51.290;6.918;2023-05-02T14:24:06;16.60;59.20
10451;DHT22;5273;51.290;6.918;2023-05-02T14:26:33;16.40;61.30
10451;DHT22;5273;51.290;6.918;2023-05-02T14:29:01;16.30;61.30
10451;DHT22;5273;51.290;6.918;2023-05-02T14:31:28;16.20;61.30
10451;DHT22;5273;51.290;6.918;2023-05-02T14:33:55;16.20;64.70
10451;DHT22;5273;51.290;6.918;2023-05-02T14:36:22;16.20;63.00
10451;DHT22;5273;51.290;6.918;2023-05-02T14:38:48;16.40;61.70
10451;DHT22;5273;51.290;6.918;2023-05-02T14:41:15;16.40;60.80
10451;DHT22;5273;51.290;6.918;2023-05-02T14:43:42;16.30;61.10
10451;DHT22;5273;51.290;6.918;2023-05-02T14:46:10;16.30;61.00
10451;DHT22;5273;51.290;6.918;2023-05-02T14:48:37;16.10;63.10
10451;DHT22;5273;51.290;6.918;2023-05-02T14:51:04;16.20;65.60
10451;DHT22;5273;51.290;6.918;2023-05-02T14:53:31;16.30;63.80
10451;DHT22;5273;51.290;6.918;2023-05-02T14:55:58;16.40;62.20
10451;DHT22;5273;51.290;6.918;2023-05-02T14:58:25;16.50;63.00
10451;DHT22;5273;51.290;6.918;2023-05-02T15:00:52;16.50;60.20
10451;DHT22;5273;51.290;6.918;2023-05-02T15:03:20;16.70;61.20
10451;DHT22;5273;51.290;6.918;2023-05-02T15:05:47;16.80;59.50
10451;DHT22;5273;51.290;6.918;2023-05-02T15:08:14;16.80;61.60
10451;DHT22;5273;51.290;6.918;2023-05-02T15:10:40;16.90;61.30
10451;DHT22;5273;51.290;6.918;2023-05-02T15:13:07;16.70;61.90
10451;DHT22;5273;51.290;6.918;2023-05-02T15:15:34;16.70;60.00
10451;DHT22;5273;51.290;6.918;2023-05-02T15:18:02;16.70;60.80
10451;DHT22;5273;51.290;6.918;2023-05-02T15:20:30;16.70;61.20
10451;DHT22;5273;51.290;6.918;2023-05-02T15:22:57;16.60;60.90
10451;DHT22;5273;51.290;6.918;2023-05-02T15:25:27;16.70;62.80
10451;DHT22;5273;51.290;6.918;2023-05-02T15:27:55;16.70;60.90
10451;DHT22;5273;51.290;6.918;2023-05-02T15:30:21;16.60;57.50
10451;DHT22;5273;51.290;6.918;2023-05-02T15:32:48;16.50;56.10
10451;DHT22;5273;51.290;6.918;2023-05-02T15:35:15;16.30;57.50
10451;DHT22;5273;51.290;6.918;2023-05-02T15:37:43;16.20;58.50
10451;DHT22;5273;51.290;6.918;2023-05-02T15:40:10;16.10;59.60
10451;DHT22;5273;51.290;6.918;2023-05-02T15:42:38;15.90;58.80
10451;DHT22;5273;51.290;6.918;2023-05-02T15:45:06;15.80;59.10
10451;DHT22;5273;51.290;6.918;2023-05-02T15:47:34;15.70;58.70
10451;DHT22;5273;51.290;6.918;2023-05-02T15:50:00;15.50;59.30
10451;DHT22;5273;51.290;6.918;2023-05-02T15:52:27;15.50;61.50
10451;DHT22;5273;51.290;6.918;2023-05-02T15:54:55;15.40;58.10
10451;DHT22;5273;51.290;6.918;2023-05-02T15:57:23;15.40;60.60